Time;durP1;ratioP1;P1;durP2;ratioP2;P2;SDS_P1;SDS_P2;PMS_P1;PMS_P2;Temp;Humidity;BMP_temperature;BMP_pressure;BME280_temperature;BME280_humidity;BME280_pressure;Samples;Min_cycle;Max_cycle;Signal;HPM_P1;HPM_P2
2022/01/07 00:02:18;;;;;;;11.23;6.63;;;;;;;;;;5070467;28;20453;-70
2022/01/07 00:04:45;;;;;;;10.00;4.50;;;;;;;;;;5070872;28;20451;-69
2022/01/07 00:07:14;;;;;;;9.87;5.60;;;;;;;;;;5070044;28;20449;-70
2022/01/07 00:09:41;;;;;;;12.83;5.70;;;;;;;;;;5071222;28;20485;-70
2022/01/07 00:12:08;;;;;;;9.67;4.90;;;;;;;;;;5069880;28;20447;-70
2022/01/07 00:14:36;;;;;;;8.10;5.17;;;;;;;;;;5070479;28;20575;-70
2022/01/07 00:17:03;;;;;;;11.17;5.33;;;;;;;;;;5069774;28;20511;-69
2022/01/07 00:19:30;;;;;;;7.70;5.23;;;;;;;;;;5070542;28;20446;-70
2022/01/07 00:21:57;;;;;;;5.63;5.03;;;;;;;;;;5071463;28;20454;-70
2022/01/07 00:24:26;;;;;;;7.03;4.57;;;;;;;;;;5070268;28;20533;-70
2022/01/07 00:26:53;;;;;;;10.53;4.83;;;;;;;;;;5069998;28;20450;-70
2022/01/07 00:29:20;;;;;;;5.63;4.50;;;;;;;;;;5070337;28;21038;-70
2022/01/07 00:31:47;;;;;;;15.53;5.17;;;;;;;;;;5070722;28;20446;-70
2022/01/07 00:34:14;;;;;;;9.00;4.63;;;;;;;;;;5069545;28;20478;-69
2022/01/07 00:36:41;;;;;;;8.77;4.70;;;;;;;;;;5070445;28;20458;-69
2022/01/07 00:39:08;;;;;;;6.63;4.07;;;;;;;;;;5069984;28;20442;-69
2022/01/07 00:41:37;;;;;;;6.77;4.10;;;;;;;;;;5069880;28;20460;-70
2022/01/07 00:44:04;;;;;;;6.90;4.07;;;;;;;;;;5070052;28;20456;-69
2022/01/07 00:46:32;;;;;;;6.90;5.30;;;;;;;;;;5070113;28;20447;-70
2022/01/07 00:48:59;;;;;;;7.00;4.50;;;;;;;;;;5071058;28;20445;-69
2022/01/07 00:51:26;;;;;;;9.13;4.60;;;;;;;;;;5069830;28;20455;-70
2022/01/07 00:53:53;;;;;;;7.30;4.50;;;;;;;;;;5070228;28;20474;-70
2022/01/07 00:56:21;;;;;;;5.03;4.20;;;;;;;;;;5069249;28;20453;-69
2022/01/07 00:58:49;;;;;;;7.80;4.43;;;;;;;;;;5070803;28;20474;-70
2022/01/07 01:01:17;;;;;;;13.03;4.30;;;;;;;;;;5069927;28;20449;-70
2022/01/07 01:03:44;;;;;;;6.17;4.23;;;;;;;;;;5069601;28;21013;-70
2022/01/07 01:06:11;;;;;;;5.10;4.07;;;;;;;;;;5069393;28;20442;-69
2022/01/07 01:08:39;;;;;;;9.23;4.20;;;;;;;;;;5070562;28;20818;-70
2022/01/07 01:11:06;;;;;;;7.90;4.33;;;;;;;;;;5072650;28;20462;-69
2022/01/07 01:13:33;;;;;;;7.73;4.17;;;;;;;;;;5073725;28;20480;-70
2022/01/07 01:16:02;;;;;;;10.57;4.63;;;;;;;;;;5073732;28;20447;-70
2022/01/07 01:18:29;;;;;;;12.80;4.83;;;;;;;;;;5073682;28;20452;-69
2022/01/07 01:20:56;;;;;;;7.63;4.53;;;;;;;;;;5073626;28;20516;-70
2022/01/07 01:23:23;;;;;;;9.73;4.80;;;;;;;;;;5073412;28;20453;-69
2022/01/07 01:25:51;;;;;;;7.30;4.93;;;;;;;;;;5073434;28;20446;-69
2022/01/07 01:28:18;;;;;;;15.07;5.00;;;;;;;;;;5072985;28;20505;-69
2022/01/07 01:30:45;;;;;;;8.60;4.37;;;;;;;;;;5073899;28;20456;-70
2022/01/07 01:33:14;;;;;;;7.60;4.63;;;;;;;;;;5072225;28;20516;-69
2022/01/07 01:35:41;;;;;;;11.13;4.50;;;;;;;;;;5070711;28;20449;-70
2022/01/07 01:38:08;;;;;;;5.17;4.03;;;;;;;;;;5072972;28;20450;-69
2022/01/07 01:40:36;;;;;;;8.17;4.43;;;;;;;;;;5073542;28;20447;-69
2022/01/07 01:43:03;;;;;;;7.10;4.70;;;;;;;;;;5073032;28;20801;-69
2022/01/07 01:45:31;;;;;;;7.03;4.63;;;;;;;;;;5073544;28;20538;-70
2022/01/07 01:47:58;;;;;;;7.70;4.30;;;;;;;;;;5072878;28;20471;-69
2022/01/07 01:50:27;;;;;;;6.13;4.50;;;;;;;;;;5072835;28;20442;-69
2022/01/07 01:52:55;;;;;;;6.43;4.70;;;;;;;;;;5072939;28;20474;-69
2022/01/07 01:55:23;;;;;;;11.57;4.50;;;;;;;;;;5072652;28;20916;-70
2022/01/07 01:57:52;;;;;;;7.50;4.47;;;;;;;;;;5072576;28;20446;-69
2022/01/07 02:00:19;;;;;;;5.90;4.57;;;;;;;;;;5061685;28;20482;-70
2022/01/07 02:02:46;;;;;;;7.37;4.53;;;;;;;;;;5072892;28;21051;-70
2022/01/07 02:05:14;;;;;;;10.33;4.37;;;;;;;;;;5072135;28;20446;-69
2022/01/07 02:07:42;;;;;;;12.73;5.90;;;;;;;;;;5072562;28;20521;-69
2022/01/07 02:10:11;;;;;;;16.93;5.30;;;;;;;;;;5072082;28;20454;-69
2022/01/07 02:12:39;;;;;;;7.23;4.53;;;;;;;;;;5072288;28;20482;-70
2022/01/07 02:15:07;;;;;;;5.83;4.10;;;;;;;;;;5072507;28;20564;-69
2022/01/07 02:17:34;;;;;;;9.60;4.77;;;;;;;;;;5072360;28;21016;-69
2022/01/07 02:20:03;;;;;;;6.50;3.90;;;;;;;;;;5073248;28;20453;-69
2022/01/07 02:22:30;;;;;;;5.00;3.73;;;;;;;;;;5072471;28;20951;-69
2022/01/07 02:24:57;;;;;;;12.83;5.40;;;;;;;;;;5072011;28;20452;-70
2022/01/07 02:27:24;;;;;;;5.40;4.50;;;;;;;;;;5071324;28;20544;-69
2022/01/07 02:29:52;;;;;;;13.57;5.50;;;;;;;;;;5072698;28;20537;-69
2022/01/07 02:32:21;;;;;;;6.53;5.00;;;;;;;;;;5071766;28;20528;-69
2022/01/07 02:34:48;;;;;;;15.47;4.90;;;;;;;;;;5072575;28;20481;-69
2022/01/07 02:37:17;;;;;;;7.57;4.57;;;;;;;;;;5071380;28;20452;-69
2022/01/07 02:39:45;;;;;;;6.60;4.17;;;;;;;;;;5072647;28;20461;-69
2022/01/07 02:42:12;;;;;;;11.13;4.27;;;;;;;;;;5065899;28;20536;-69
2022/01/07 02:44:40;;;;;;;16.03;6.07;;;;;;;;;;5076213;28;21092;-69
2022/01/07 02:47:07;;;;;;;7.43;5.20;;;;;;;;;;5071153;28;20464;-69
2022/01/07 02:49:34;;;;;;;8.50;4.93;;;;;;;;;;5072297;28;20458;-69
2022/01/07 02:52:01;;;;;;;10.43;5.07;;;;;;;;;;5072188;28;20989;-70
2022/01/07 02:54:30;;;;;;;7.83;5.20;;;;;;;;;;5072071;28;20588;-69
2022/01/07 02:56:57;;;;;;;7.30;6.43;;;;;;;;;;5071603;28;20538;-69
2022/01/07 02:59:24;;;;;;;8.93;5.30;;;;;;;;;;5071084;28;20460;-70
2022/01/07 03:01:52;;;;;;;9.70;5.57;;;;;;;;;;5071390;28;20450;-69
2022/01/07 03:04:19;;;;;;;7.80;5.13;;;;;;;;;;5071474;28;20555;-69
2022/01/07 03:06:46;;;;;;;10.40;6.00;;;;;;;;;;5071719;28;20905;-69
2022/01/07 03:09:13;;;;;;;10.53;6.17;;;;;;;;;;5070907;28;20454;-69
2022/01/07 03:11:42;;;;;;;8.00;4.90;;;;;;;;;;5071954;28;20458;-69
2022/01/07 03:14:09;;;;;;;11.93;5.33;;;;;;;;;;5067775;28;20483;-69
2022/01/07 03:16:38;;;;;;;9.67;5.50;;;;;;;;;;5071023;28;20459;-69
2022/01/07 03:19:05;;;;;;;12.60;5.97;;;;;;;;;;5070715;28;20444;-69
2022/01/07 03:21:33;;;;;;;4.90;4.37;;;;;;;;;;5071846;28;20462;-70
2022/01/07 03:24:00;;;;;;;8.33;4.07;;;;;;;;;;5071192;28;20513;-69
2022/01/07 03:26:27;;;;;;;10.40;6.13;;;;;;;;;;5071037;28;20451;-69
2022/01/07 03:28:55;;;;;;;8.90;5.20;;;;;;;;;;5071516;28;20453;-69
2022/01/07 03:31:23;;;;;;;9.90;4.97;;;;;;;;;;5062162;28;20935;-69
2022/01/07 03:33:50;;;;;;;7.07;4.07;;;;;;;;;;5070278;28;20483;-69
2022/01/07 03:36:17;;;;;;;6.90;4.10;;;;;;;;;;5070206;28;20455;-69
2022/01/07 03:38:44;;;;;;;11.20;4.50;;;;;;;;;;5071343;28;20461;-69
2022/01/07 03:41:11;;;;;;;7.53;4.97;;;;;;;;;;5070812;28;20864;-69
2022/01/07 03:43:38;;;;;;;7.03;3.53;;;;;;;;;;5071380;28;20450;-69
2022/01/07 03:46:07;;;;;;;8.80;5.30;;;;;;;;;;5069791;28;20969;-69
2022/01/07 03:48:34;;;;;;;12.00;4.40;;;;;;;;;;5070725;28;20453;-69
2022/01/07 03:51:02;;;;;;;6.97;4.57;;;;;;;;;;5071466;28;20562;-69
2022/01/07 03:53:29;;;;;;;5.97;4.40;;;;;;;;;;5070717;28;21072;-69
2022/01/07 03:55:56;;;;;;;6.10;4.47;;;;;;;;;;5070336;28;20448;-70
2022/01/07 03:58:23;;;;;;;6.67;3.80;;;;;;;;;;5070363;28;20940;-69
2022/01/07 04:00:50;;;;;;;6.53;4.37;;;;;;;;;;5071385;28;20445;-69
2022/01/07 04:03:20;;;;;;;6.70;3.27;;;;;;;;;;5070425;28;20458;-69
2022/01/07 04:05:47;;;;;;;4.60;3.83;;;;;;;;;;5070914;28;20450;-69
2022/01/07 04:08:14;;;;;;;7.80;4.40;;;;;;;;;;5069945;28;20529;-69
2022/01/07 04:10:41;;;;;;;7.60;4.10;;;;;;;;;;5070947;28;20482;-68
2022/01/07 04:13:09;;;;;;;7.10;4.87;;;;;;;;;;5070557;28;20452;-68
2022/01/07 04:15:36;;;;;;;4.33;3.70;;;;;;;;;;5071032;28;20795;-69
2022/01/07 04:18:03;;;;;;;5.60;4.17;;;;;;;;;;5070295;28;20827;-68
2022/01/07 04:20:33;;;;;;;6.20;4.40;;;;;;;;;;5071072;28;20454;-69
2022/01/07 04:23:00;;;;;;;5.70;4.00;;;;;;;;;;5062536;28;20451;-69
2022/01/07 04:25:28;;;;;;;6.97;3.00;;;;;;;;;;5070778;28;20457;-69
2022/01/07 04:27:58;;;;;;;6.10;4.07;;;;;;;;;;5070125;28;20455;-69
2022/01/07 04:30:27;;;;;;;6.83;4.30;;;;;;;;;;5070155;28;20452;-69
2022/01/07 04:32:54;;;;;;;6.93;4.57;;;;;;;;;;5071018;28;20445;-69
2022/01/07 04:35:21;;;;;;;6.50;3.77;;;;;;;;;;5069966;28;20478;-69
2022/01/07 04:37:50;;;;;;;3.27;2.50;;;;;;;;;;5070067;28;20461;-69
2022/01/07 04:40:17;;;;;;;12.17;5.20;;;;;;;;;;5070316;28;20492;-69
2022/01/07 04:42:45;;;;;;;6.90;4.10;;;;;;;;;;5070330;28;20456;-69
2022/01/07 04:45:13;;;;;;;10.27;5.17;;;;;;;;;;5071696;28;20449;-68
2022/01/07 04:47:40;;;;;;;6.30;5.10;;;;;;;;;;5074219;28;20466;-69
2022/01/07 04:50:09;;;;;;;6.17;4.00;;;;;;;;;;5073792;28;20528;-68
2022/01/07 04:52:38;;;;;;;7.00;4.50;;;;;;;;;;5073884;28;20483;-68
2022/01/07 04:55:07;;;;;;;8.87;5.13;;;;;;;;;;5073748;28;20493;-69
2022/01/07 04:57:35;;;;;;;6.70;5.00;;;;;;;;;;5073806;28;20873;-68
2022/01/07 05:00:02;;;;;;;7.97;4.80;;;;;;;;;;5064856;28;20456;-69
2022/01/07 05:02:29;;;;;;;7.13;4.33;;;;;;;;;;5074326;28;20539;-68
2022/01/07 05:04:57;;;;;;;6.80;3.93;;;;;;;;;;5074674;28;20455;-69
2022/01/07 05:07:24;;;;;;;7.53;4.83;;;;;;;;;;5073223;28;20812;-68
2022/01/07 05:09:51;;;;;;;12.90;5.43;;;;;;;;;;5073852;28;20953;-69
2022/01/07 05:12:19;;;;;;;8.50;5.97;;;;;;;;;;5073438;28;20476;-69
2022/01/07 05:14:47;;;;;;;16.03;5.90;;;;;;;;;;5074391;28;20503;-69
2022/01/07 05:17:14;;;;;;;7.30;4.50;;;;;;;;;;5072476;28;20449;-69
2022/01/07 05:19:41;;;;;;;8.37;6.63;;;;;;;;;;5073648;28;20530;-69
2022/01/07 05:22:08;;;;;;;8.13;5.20;;;;;;;;;;5072810;28;20459;-68
2022/01/07 05:24:35;;;;;;;6.30;3.50;;;;;;;;;;5073667;28;20548;-68
2022/01/07 05:27:02;;;;;;;6.47;4.60;;;;;;;;;;5072889;28;20796;-68
2022/01/07 05:29:34;;;;;;;8.03;4.80;;;;;;;;;;5074149;28;20447;-69
2022/01/07 05:32:02;;;;;;;10.60;6.13;;;;;;;;;;5073491;28;20865;-68
2022/01/07 05:34:29;;;;;;;7.23;4.27;;;;;;;;;;5073341;28;20521;-68
2022/01/07 05:36:56;;;;;;;9.00;4.93;;;;;;;;;;5073013;28;20454;-69
2022/01/07 05:39:23;;;;;;;4.80;3.53;;;;;;;;;;5073449;28;20598;-68
2022/01/07 05:41:50;;;;;;;9.20;4.90;;;;;;;;;;5073073;28;20537;-68
2022/01/07 05:44:17;;;;;;;10.40;4.50;;;;;;;;;;5073007;28;20450;-68
2022/01/07 05:46:46;;;;;;;6.93;4.60;;;;;;;;;;5073246;28;20452;-69
2022/01/07 05:49:13;;;;;;;12.17;5.17;;;;;;;;;;5072489;28;20449;-68
2022/01/07 05:51:41;;;;;;;11.47;5.80;;;;;;;;;;5073392;28;20576;-68
2022/01/07 05:54:08;;;;;;;8.50;5.40;;;;;;;;;;5072961;28;20930;-68
2022/01/07 05:56:36;;;;;;;8.43;4.63;;;;;;;;;;5071442;28;20464;-68
2022/01/07 05:59:05;;;;;;;7.40;4.40;;;;;;;;;;5085801;28;20442;-68
2022/01/07 06:01:32;;;;;;;9.30;6.47;;;;;;;;;;5073455;28;20443;-69
2022/01/07 06:04:01;;;;;;;13.30;6.30;;;;;;;;;;5073333;28;21003;-68
2022/01/07 06:06:28;;;;;;;7.60;5.27;;;;;;;;;;5072758;28;20929;-69
2022/01/07 06:08:55;;;;;;;7.30;5.30;;;;;;;;;;5073182;28;20453;-68
2022/01/07 06:11:22;;;;;;;9.20;5.87;;;;;;;;;;5072324;28;20725;-68
2022/01/07 06:13:49;;;;;;;9.87;5.70;;;;;;;;;;5072714;28;20528;-69
2022/01/07 06:16:16;;;;;;;10.80;6.43;;;;;;;;;;5066239;28;20483;-69
2022/01/07 06:18:51;;;;;;;11.63;6.03;;;;;;;;;;5072568;28;20455;-69
2022/01/07 06:21:20;;;;;;;8.00;5.57;;;;;;;;;;5072635;28;20454;-70
2022/01/07 06:23:47;;;;;;;8.20;4.90;;;;;;;;;;5072622;28;20487;-69
2022/01/07 06:26:14;;;;;;;10.53;5.57;;;;;;;;;;5071851;28;20543;-71
2022/01/07 06:28:41;;;;;;;19.80;5.10;;;;;;;;;;5071547;28;20550;-69
2022/01/07 06:31:09;;;;;;;14.77;5.23;;;;;;;;;;5069916;28;20944;-70
2022/01/07 06:33:36;;;;;;;10.73;6.20;;;;;;;;;;5069428;28;21015;-69
2022/01/07 06:36:03;;;;;;;10.00;7.03;;;;;;;;;;5068618;28;20486;-69
2022/01/07 06:38:32;;;;;;;17.60;7.37;;;;;;;;;;5070362;28;20532;-69
2022/01/07 06:40:59;;;;;;;11.93;6.80;;;;;;;;;;5069969;28;20448;-69
2022/01/07 06:43:26;;;;;;;9.37;5.43;;;;;;;;;;5068983;28;20443;-69
2022/01/07 06:45:53;;;;;;;9.70;5.30;;;;;;;;;;5069771;28;20486;-69
2022/01/07 06:48:20;;;;;;;11.00;6.07;;;;;;;;;;5069318;28;20534;-69
2022/01/07 06:50:48;;;;;;;9.80;5.07;;;;;;;;;;5071078;28;20998;-69
2022/01/07 06:53:15;;;;;;;8.70;5.60;;;;;;;;;;5069619;28;21002;-69
2022/01/07 06:55:43;;;;;;;7.80;4.50;;;;;;;;;;5071407;28;20476;-70
2022/01/07 06:58:10;;;;;;;6.00;4.87;;;;;;;;;;5069425;28;20460;-70
2022/01/07 07:00:38;;;;;;;7.67;4.77;;;;;;;;;;5072013;28;20449;-70
2022/01/07 07:03:05;;;;;;;7.17;5.30;;;;;;;;;;5070997;28;20449;-69
2022/01/07 07:05:32;;;;;;;8.97;5.07;;;;;;;;;;5071153;28;20465;-70
2022/01/07 07:07:59;;;;;;;7.43;4.83;;;;;;;;;;5070866;28;20453;-69
2022/01/07 07:10:26;;;;;;;10.40;7.03;;;;;;;;;;5071023;28;20461;-69
2022/01/07 07:12:55;;;;;;;9.40;5.83;;;;;;;;;;5070468;28;20453;-70
2022/01/07 07:15:22;;;;;;;12.73;5.63;;;;;;;;;;5069956;28;20986;-70
2022/01/07 07:17:49;;;;;;;8.20;5.70;;;;;;;;;;5069969;28;20452;-70
2022/01/07 07:20:16;;;;;;;14.20;6.17;;;;;;;;;;5070462;28;20963;-70
2022/01/07 07:22:43;;;;;;;10.00;6.30;;;;;;;;;;5071424;28;20775;-70
2022/01/07 07:25:11;;;;;;;13.43;7.10;;;;;;;;;;5070149;28;20449;-69
2022/01/07 07:27:38;;;;;;;14.60;7.43;;;;;;;;;;5070181;28;20946;-70
2022/01/07 07:30:08;;;;;;;11.67;7.33;;;;;;;;;;5070640;28;20454;-70
2022/01/07 07:32:36;;;;;;;15.07;8.90;;;;;;;;;;5070927;28;20441;-70
2022/01/07 07:36:26;;;;;;;9.30;6.00;;;;;;;;;;5070502;28;20545;-69
2022/01/07 07:37:51;;;;;;;7.47;5.60;;;;;;;;;;5070642;28;20504;-69
2022/01/07 07:40:18;;;;;;;8.30;5.23;;;;;;;;;;5067900;28;21009;-70
2022/01/07 07:42:45;;;;;;;11.50;6.67;;;;;;;;;;5070944;28;20518;-70
2022/01/07 07:45:14;;;;;;;7.87;5.33;;;;;;;;;;5070605;28;20449;-70
2022/01/07 07:47:41;;;;;;;8.13;5.77;;;;;;;;;;5069838;28;20941;-70
2022/01/07 07:50:09;;;;;;;10.20;6.70;;;;;;;;;;5070691;28;20532;-70
2022/01/07 07:52:36;;;;;;;8.93;5.80;;;;;;;;;;5069976;28;20496;-70
2022/01/07 07:55:04;;;;;;;9.10;5.90;;;;;;;;;;5069636;28;20484;-69
2022/01/07 07:57:31;;;;;;;10.60;5.40;;;;;;;;;;5070198;28;20455;-70
2022/01/07 07:59:58;;;;;;;7.70;4.90;;;;;;;;;;5070761;28;20441;-70
2022/01/07 08:02:30;;;;;;;11.80;6.07;;;;;;;;;;5070027;28;20454;-71
2022/01/07 08:04:57;;;;;;;10.47;5.00;;;;;;;;;;5066063;28;20828;-70
2022/01/07 08:07:24;;;;;;;9.37;5.00;;;;;;;;;;5069477;28;20830;-70
2022/01/07 08:09:53;;;;;;;10.77;5.93;;;;;;;;;;5070319;28;20457;-70
2022/01/07 08:12:25;;;;;;;14.50;8.97;;;;;;;;;;5069965;28;20457;-70
2022/01/07 08:17:38;;;;;;;6.33;4.27;;;;;;;;;;5070251;28;20559;-69
2022/01/07 08:20:07;;;;;;;10.00;5.90;;;;;;;;;;5068470;28;20963;-69
2022/01/07 08:22:34;;;;;;;8.77;6.43;;;;;;;;;;5070418;28;20467;-69
2022/01/07 08:25:01;;;;;;;10.10;5.40;;;;;;;;;;5070741;28;20935;-70
2022/01/07 08:27:28;;;;;;;8.57;5.77;;;;;;;;;;5070126;28;20869;-70
2022/01/07 08:29:56;;;;;;;13.30;5.70;;;;;;;;;;5069754;28;20456;-69
2022/01/07 08:35:09;;;;;;;7.73;4.77;;;;;;;;;;5067990;28;20424;-68
2022/01/07 08:37:36;;;;;;;7.17;5.03;;;;;;;;;;5067879;28;20531;-69
2022/01/07 08:40:04;;;;;;;14.37;6.37;;;;;;;;;;5068403;28;20445;-70
2022/01/07 08:42:32;;;;;;;9.73;5.37;;;;;;;;;;5068275;28;20942;-71
2022/01/07 08:44:59;;;;;;;8.60;6.13;;;;;;;;;;5068738;28;20449;-69
2022/01/07 08:47:27;;;;;;;9.60;5.47;;;;;;;;;;5067923;28;20861;-69
2022/01/07 08:49:54;;;;;;;8.60;5.27;;;;;;;;;;5065559;28;20442;-71
2022/01/07 08:52:23;;;;;;;6.20;4.73;;;;;;;;;;5069227;28;20568;-70
2022/01/07 08:54:54;;;;;;;10.73;5.67;;;;;;;;;;5070339;28;20445;-70
2022/01/07 08:57:21;;;;;;;9.77;5.53;;;;;;;;;;5068430;28;20477;-71
2022/01/07 08:59:49;;;;;;;8.23;5.63;;;;;;;;;;5074940;28;20441;-73
2022/01/07 09:02:16;;;;;;;10.60;5.70;;;;;;;;;;5068552;28;20456;-71
2022/01/07 09:04:43;;;;;;;8.70;5.67;;;;;;;;;;5065259;28;20545;-70
2022/01/07 09:07:10;;;;;;;10.37;5.43;;;;;;;;;;5066727;28;20449;-70
2022/01/07 09:09:39;;;;;;;14.83;6.00;;;;;;;;;;5067211;28;20454;-70
2022/01/07 09:12:07;;;;;;;8.37;5.83;;;;;;;;;;5066415;28;20456;-70
2022/01/07 09:14:34;;;;;;;9.77;5.37;;;;;;;;;;5067778;28;20528;-70
2022/01/07 09:17:02;;;;;;;7.83;4.60;;;;;;;;;;5067065;28;20511;-69
2022/01/07 09:19:29;;;;;;;7.83;4.90;;;;;;;;;;5067502;28;20536;-70
2022/01/07 09:21:56;;;;;;;10.23;5.50;;;;;;;;;;5067240;28;20485;-70
2022/01/07 09:24:25;;;;;;;8.37;4.80;;;;;;;;;;5066579;28;20476;-70
2022/01/07 09:26:54;;;;;;;7.23;4.73;;;;;;;;;;5067323;28;20456;-70
2022/01/07 09:29:23;;;;;;;8.77;4.90;;;;;;;;;;5053954;28;20450;-71
2022/01/07 09:31:50;;;;;;;10.20;5.40;;;;;;;;;;5067533;28;20448;-70
2022/01/07 09:34:17;;;;;;;6.80;4.67;;;;;;;;;;5070570;28;20454;-69
2022/01/07 09:36:44;;;;;;;6.43;4.90;;;;;;;;;;5070634;28;20567;-69
2022/01/07 09:39:11;;;;;;;6.87;3.53;;;;;;;;;;5069726;28;20540;-69
2022/01/07 09:41:38;;;;;;;6.47;4.03;;;;;;;;;;5069070;28;20479;-70
2022/01/07 09:44:11;;;;;;;5.67;4.60;;;;;;;;;;5070129;28;20449;-70
2022/01/07 09:46:38;;;;;;;9.07;4.80;;;;;;;;;;5069592;28;20951;-70
2022/01/07 09:49:05;;;;;;;7.00;4.90;;;;;;;;;;5068985;28;20870;-72
2022/01/07 09:51:32;;;;;;;9.67;5.30;;;;;;;;;;5069286;28;20471;-69
2022/01/07 09:54:03;;;;;;;13.10;5.30;;;;;;;;;;5069999;28;20994;-72
2022/01/07 09:56:31;;;;;;;6.23;4.00;;;;;;;;;;5070350;28;21020;-70
2022/01/07 09:58:58;;;;;;;6.60;4.77;;;;;;;;;;5067959;28;20450;-72
2022/01/07 10:01:26;;;;;;;9.63;4.60;;;;;;;;;;5067528;28;20453;-69
2022/01/07 10:03:54;;;;;;;8.50;4.50;;;;;;;;;;5066796;28;20453;-70
2022/01/07 10:06:21;;;;;;;6.90;4.93;;;;;;;;;;5069288;28;20954;-69
2022/01/07 10:09:01;;;;;;;7.93;4.60;;;;;;;;;;5070390;28;20453;-72
2022/01/07 10:11:29;;;;;;;7.90;4.60;;;;;;;;;;5057403;28;20453;-70
2022/01/07 10:14:23;;;;;;;7.53;4.80;;;;;;;;;;5069821;28;20515;-69
2022/01/07 10:16:53;;;;;;;6.77;4.30;;;;;;;;;;5033526;28;20573;-68
2022/01/07 10:19:33;;;;;;;5.97;4.53;;;;;;;;;;5068269;28;20976;-71
2022/01/07 10:22:01;;;;;;;8.50;5.07;;;;;;;;;;5067471;28;20477;-71
2022/01/07 10:24:28;;;;;;;6.40;4.33;;;;;;;;;;5069734;28;20449;-69
2022/01/07 10:27:11;;;;;;;5.70;4.40;;;;;;;;;;5069762;28;20532;-70
2022/01/07 10:29:39;;;;;;;7.80;3.90;;;;;;;;;;5068646;28;21005;-71
2022/01/07 10:32:27;;;;;;;5.37;3.90;;;;;;;;;;5067281;28;20464;-70
2022/01/07 10:35:08;;;;;;;6.83;4.70;;;;;;;;;;5068328;28;20449;-69
2022/01/07 10:37:35;;;;;;;7.40;5.53;;;;;;;;;;5067622;28;20564;-72
2022/01/07 10:40:02;;;;;;;8.97;5.40;;;;;;;;;;5067237;28;20926;-67
2022/01/07 10:42:30;;;;;;;8.57;4.87;;;;;;;;;;5066665;28;20525;-69
2022/01/07 10:45:01;;;;;;;13.63;5.53;;;;;;;;;;5067644;28;20485;-70
2022/01/07 10:47:30;;;;;;;8.27;4.50;;;;;;;;;;5067858;28;20501;-72
2022/01/07 10:50:12;;;;;;;7.27;5.00;;;;;;;;;;5068901;28;20456;-72
2022/01/07 10:52:39;;;;;;;8.93;5.60;;;;;;;;;;5068718;28;20520;-70
2022/01/07 10:55:10;;;;;;;9.93;5.40;;;;;;;;;;5068527;28;20446;-73
2022/01/07 10:57:38;;;;;;;7.13;4.13;;;;;;;;;;5068724;28;20504;-69
2022/01/07 11:00:06;;;;;;;10.13;4.47;;;;;;;;;;5067325;28;20455;-70
2022/01/07 11:02:35;;;;;;;8.20;5.10;;;;;;;;;;5067913;28;20457;-70
2022/01/07 11:05:02;;;;;;;9.33;6.17;;;;;;;;;;5068777;28;20536;-68
2022/01/07 11:07:30;;;;;;;8.10;5.60;;;;;;;;;;5071456;28;20801;-70
2022/01/07 11:09:57;;;;;;;7.23;4.23;;;;;;;;;;5070534;28;20983;-70
2022/01/07 11:12:25;;;;;;;8.17;5.10;;;;;;;;;;5071148;28;20456;-69
2022/01/07 11:14:52;;;;;;;6.53;5.10;;;;;;;;;;5070435;28;20786;-73
2022/01/07 11:17:21;;;;;;;12.70;6.00;;;;;;;;;;5069770;28;20491;-71
2022/01/07 11:19:52;;;;;;;8.80;4.77;;;;;;;;;;5071719;28;20814;-73
2022/01/07 11:22:22;;;;;;;8.87;5.57;;;;;;;;;;5068919;28;20449;-70
2022/01/07 11:24:51;;;;;;;11.80;4.80;;;2.50;99.90;;;;;;5070567;28;20454;-74
2022/01/07 11:27:20;;;;;;;7.03;5.00;;;2.60;1.00;;;;;;5069409;28;20537;-70
2022/01/07 11:30:10;;;;;;;7.93;5.33;;;2.50;1.00;;;;;;5070129;28;20446;-70
2022/01/07 11:32:39;;;;;;;6.90;5.10;;;3.30;1.00;;;;;;5071018;28;20503;-70
2022/01/07 11:35:47;;;;;;;8.50;5.27;;;2.80;1.00;;;;;;5070398;28;20877;-70
2022/01/07 11:38:37;;;;;;;6.10;4.90;;;3.00;1.00;;;;;;5069903;28;20946;-70
2022/01/07 11:41:09;;;;;;;10.87;4.40;;;3.60;99.90;;;;;;5070376;28;20812;-70
2022/01/07 11:43:39;;;;;;;9.30;4.83;;;2.90;99.90;;;;;;5069555;28;20446;-70
2022/01/07 11:46:25;;;;;;;6.80;4.97;;;3.80;99.90;;;;;;5070416;28;20459;-70
2022/01/07 11:48:54;;;;;;;7.47;5.30;;;3.20;1.00;;;;;;5070983;28;20803;-70
2022/01/07 11:51:21;;;;;;;7.80;4.77;;;3.00;99.90;;;;;;5069626;28;20456;-69
2022/01/07 11:54:06;;;;;;;7.73;4.13;;;3.00;99.90;;;;;;5069927;28;20885;-70
2022/01/07 11:56:36;;;;;;;12.77;5.10;;;3.00;1.00;;;;;;5071039;28;20473;-70
2022/01/07 11:59:25;;;;;;;9.47;5.10;;;3.20;99.90;;;;;;5070082;28;20449;-69
2022/01/07 12:02:05;;;;;;;6.47;4.70;;;3.40;99.90;;;;;;5070900;28;20869;-70
2022/01/07 12:04:34;;;;;;;7.70;4.50;;;3.60;97.00;;;;;;5069914;28;20438;-70
2022/01/07 12:07:04;;;;;;;8.23;4.60;;;3.40;1.00;;;;;;5071807;28;20942;-70
2022/01/07 12:09:40;;;;;;;8.10;5.47;;;3.40;1.00;;;;;;5074043;28;20867;-70
2022/01/07 12:12:10;;;;;;;5.50;4.60;;;3.60;1.00;;;;;;5071183;28;20445;-70
2022/01/07 12:14:41;;;;;;;7.33;5.33;;;3.50;99.90;;;;;;5070738;28;20819;-70
2022/01/07 12:17:13;;;;;;;6.87;4.60;;;3.60;1.00;;;;;;5069557;28;20559;-71
2022/01/07 12:20:17;;;;;;;7.50;4.40;;;3.70;99.90;;;;;;5070752;28;20873;-71
2022/01/07 12:22:52;;;;;;;4.37;3.70;;;3.60;99.90;;;;;;5070600;28;20523;-71
2022/01/07 12:25:22;;;;;;;7.20;4.43;;;3.70;54.60;;;;;;5069493;28;20453;-70
2022/01/07 12:27:49;;;;;;;6.03;3.70;;;3.60;1.00;;;;;;5069865;28;20454;-70
2022/01/07 12:30:15;;;;;;;6.03;3.70;;;3.70;13.10;;;;;;5069909;28;20541;-71
2022/01/07 12:32:44;;;;;;;7.43;4.20;;;3.70;1.00;;;;;;5068258;28;20453;-71
2022/01/07 12:35:12;;;;;;;5.83;3.77;;;3.90;1.00;;;;;;5067840;28;20471;-71
2022/01/07 12:37:39;;;;;;;6.90;4.17;;;4.10;99.90;;;;;;5068895;28;20816;-70
2022/01/07 12:40:09;;;;;;;8.80;3.40;;;4.00;6.10;;;;;;5067306;28;20458;-69
2022/01/07 12:42:43;;;;;;;6.10;3.23;;;3.80;99.90;;;;;;5068685;28;20441;-70
2022/01/07 12:45:15;;;;;;;4.80;3.73;;;3.90;1.00;;;;;;5067597;28;20452;-70
2022/01/07 12:47:42;;;;;;;6.50;3.30;;;4.40;99.90;;;;;;5067937;28;20485;-70
2022/01/07 12:50:10;;;;;;;5.00;3.90;;;;;;;;;;5069690;28;20540;-71
2022/01/07 12:52:38;;;;;;;4.83;3.40;;;;;;;;;;5069984;28;20480;-70
2022/01/07 12:55:07;;;;;;;4.90;3.33;;;;;;;;;;5069433;28;20536;-70
2022/01/07 12:57:36;;;;;;;5.20;3.63;;;;;;;;;;5069937;28;20491;-70
2022/01/07 13:00:10;;;;;;;5.27;4.00;;;;;;;;;;5063004;28;20536;-70
2022/01/07 13:02:38;;;;;;;7.27;3.90;;;;;;;;;;5069626;28;20959;-70
2022/01/07 13:05:15;;;;;;;3.57;2.60;;;;;;;;;;5069745;28;20575;-70
2022/01/07 13:07:43;;;;;;;8.70;4.03;;;;;;;;;;5073172;28;20544;-71
2022/01/07 13:10:10;;;;;;;4.80;3.33;;;;;;;;;;5073640;28;20457;-71
2022/01/07 13:12:38;;;;;;;4.50;3.27;;;;;;;;;;5073332;28;20945;-71
2022/01/07 13:15:06;;;;;;;4.37;3.10;;;;;;;;;;5072507;28;20461;-71
2022/01/07 13:17:34;;;;;;;5.73;3.93;;;;;;;;;;5073429;28;20477;-70
2022/01/07 13:20:02;;;;;;;6.13;3.53;;;;;;;;;;5073557;28;20449;-70
2022/01/07 13:22:29;;;;;;;9.50;3.40;;;;;;;;;;5073644;28;20858;-72
2022/01/07 13:24:57;;;;;;;12.60;3.40;;;;;;;;;;5073553;28;20449;-71
2022/01/07 13:27:24;;;;;;;5.97;3.63;;;;;;;;;;5072306;28;20453;-71
2022/01/07 13:29:54;;;;;;;6.20;3.13;;;;;;;;;;5073427;28;20552;-71
2022/01/07 13:32:22;;;;;;;5.40;3.63;;;;;;;;;;5072764;28;20445;-71
2022/01/07 13:34:51;;;;;;;6.47;3.17;;;;;;;;;;5072494;28;20445;-72
2022/01/07 13:37:19;;;;;;;3.97;2.73;;;;;;;;;;5072154;28;20477;-71
2022/01/07 13:39:48;;;;;;;4.80;2.90;;;;;;;;;;5073614;28;20543;-71
2022/01/07 13:42:20;;;;;;;3.83;3.13;;;;;;;;;;5072091;28;20528;-71
2022/01/07 13:44:51;;;;;;;5.27;3.23;;;;;;;;;;5066676;28;20530;-71
2022/01/07 13:47:22;;;;;;;3.80;2.67;;;;;;;;;;5072523;28;20542;-72
2022/01/07 13:49:51;;;;;;;4.47;2.97;;;;;;;;;;5072276;28;20543;-73
2022/01/07 13:52:27;;;;;;;4.87;2.67;;;;;;;;;;5070606;28;20473;-71
2022/01/07 13:54:55;;;;;;;5.27;3.30;;;;;;;;;;5072482;28;20433;-70
2022/01/07 13:57:23;;;;;;;7.00;3.60;;;;;;;;;;5071901;28;20481;-72
2022/01/07 13:59:52;;;;;;;4.43;2.70;;;;;;;;;;5073021;28;20455;-75
2022/01/07 14:02:20;;;;;;;3.30;2.97;;;;;;;;;;5072225;28;20530;-73
2022/01/07 14:04:49;;;;;;;2.93;2.40;;;;;;;;;;5072674;28;20532;-71
2022/01/07 14:07:28;;;;;;;7.27;3.73;;;;;;;;;;5065112;28;20474;-73
2022/01/07 14:10:02;;;;;;;5.07;3.00;;;;;;;;;;5072702;28;20452;-72
2022/01/07 14:12:29;;;;;;;4.57;2.70;;;;;;;;;;5072132;28;20438;-71
2022/01/07 14:15:04;;;;;;;4.23;2.97;;;;;;;;;;5072601;28;20447;-72
2022/01/07 14:17:31;;;;;;;4.03;2.33;;;;;;;;;;5066982;28;20840;-70
2022/01/07 14:19:59;;;;;;;3.80;2.53;;;;;;;;;;5064059;28;20441;-70
2022/01/07 14:22:27;;;;;;;5.10;2.70;;;;;;;;;;5068866;28;21033;-71
2022/01/07 14:24:54;;;;;;;4.20;2.60;;;;;;;;;;5069335;28;20457;-71
2022/01/07 14:27:29;;;;;;;3.67;3.03;;;;;;;;;;5069113;28;20829;-71
2022/01/07 14:29:56;;;;;;;2.90;1.97;;;;;;;;;;5070274;28;20715;-71
2022/01/07 14:32:25;;;;;;;6.80;3.00;;;;;;;;;;5066775;28;20452;-71
2022/01/07 14:34:55;;;;;;;4.27;2.13;;;;;;;;;;5067678;28;20752;-71
2022/01/07 14:37:23;;;;;;;5.37;2.43;;;;;;;;;;5066866;28;20480;-71
2022/01/07 14:39:51;;;;;;;6.43;2.37;;;;;;;;;;5068070;28;20445;-71
2022/01/07 14:42:18;;;;;;;3.33;2.60;;;;;;;;;;5065846;28;20532;-71
2022/01/07 14:44:45;;;;;;;5.77;3.03;;;;;;;;;;5066954;28;20441;-71